sensor_id;sensor_type;location;lat;lon;timestamp;P1;durP1;ratioP1;P2;durP2;ratioP2
45382;SDS011;42455;51.660;5.824;2023-04-01T00:03:51;2.0;;;1.0;;
45382;SDS011;42455;51.660;5.824;2023-04-01T00:08:57;3.5;;;1.0;;
45382;SDS011;42455;51.660;5.824;2023-04-01T00:14:03;4.0;;;1.0;;
45382;SDS011;42455;51.660;5.824;2023-04-01T00:19:10;3.0;;;1.0;;
45382;SDS011;42455;51.660;5.824;2023-04-01T00:24:16;3.0;;;1.0;;
45382;SDS011;42455;51.660;5.824;2023-04-01T00:29:22;3.0;;;1.0;;
45382;SDS011;42455;51.660;5.824;2023-04-01T00:34:28;4.0;;;1.0;;
45382;SDS011;42455;51.660;5.824;2023-04-01T00:39:34;2.5;;;1.0;;
45382;SDS011;42455;51.660;5.824;2023-04-01T00:44:41;2.0;;;1.0;;
45382;SDS011;42455;51.660;5.824;2023-04-01T00:49:48;1.0;;;1.0;;
45382;SDS011;42455;51.660;5.824;2023-04-01T00:54:54;3.0;;;1.0;;
45382;SDS011;42455;51.660;5.824;2023-04-01T00:59:59;2.0;;;1.0;;
45382;SDS011;42455;51.660;5.824;2023-04-01T01:05:05;3.0;;;1.0;;
45382;SDS011;42455;51.660;5.824;2023-04-01T01:10:18;2.0;;;1.0;;
45382;SDS011;42455;51.660;5.824;2023-04-01T01:15:19;2.0;;;2.0;;
45382;SDS011;42455;51.660;5.824;2023-04-01T01:21:23;3.0;;;2.0;;
45382;SDS011;42455;51.660;5.824;2023-04-01T01:26:55;3.0;;;2.0;;
45382;SDS011;42455;51.660;5.824;2023-04-01T01:30:57;3.0;;;2.0;;
45382;SDS011;42455;51.660;5.824;2023-04-01T01:35:48;3.0;;;2.0;;
45382;SDS011;42455;51.660;5.824;2023-04-01T01:40:50;3.0;;;3.0;;
45382;SDS011;42455;51.660;5.824;2023-04-01T01:45:58;3.0;;;3.0;;
45382;SDS011;42455;51.660;5.824;2023-04-01T01:50:59;4.0;;;3.0;;
45382;SDS011;42455;51.660;5.824;2023-04-01T01:56:05;4.0;;;4.0;;
45382;SDS011;42455;51.660;5.824;2023-04-01T02:01:13;4.0;;;3.0;;
45382;SDS011;42455;51.660;5.824;2023-04-01T02:06:19;4.0;;;4.0;;
45382;SDS011;42455;51.660;5.824;2023-04-01T02:11:27;5.0;;;4.0;;
45382;SDS011;42455;51.660;5.824;2023-04-01T02:16:31;5.0;;;4.0;;
45382;SDS011;42455;51.660;5.824;2023-04-01T02:21:37;5.0;;;5.0;;
45382;SDS011;42455;51.660;5.824;2023-04-01T02:26:43;5.0;;;5.0;;
45382;SDS011;42455;51.660;5.824;2023-04-01T02:31:49;6.0;;;5.0;;
45382;SDS011;42455;51.660;5.824;2023-04-01T02:36:55;7.0;;;7.0;;
45382;SDS011;42455;51.660;5.824;2023-04-01T02:42:01;7.0;;;7.0;;
45382;SDS011;42455;51.660;5.824;2023-04-01T02:47:08;7.0;;;6.5;;
45382;SDS011;42455;51.660;5.824;2023-04-01T02:52:14;7.0;;;6.0;;
45382;SDS011;42455;51.660;5.824;2023-04-01T02:57:20;6.0;;;5.5;;
45382;SDS011;42455;51.660;5.824;2023-04-01T03:02:26;6.0;;;6.0;;
45382;SDS011;42455;51.660;5.824;2023-04-01T03:07:32;6.0;;;6.0;;
45382;SDS011;42455;51.660;5.824;2023-04-01T03:12:39;7.0;;;6.0;;
45382;SDS011;42455;51.660;5.824;2023-04-01T03:17:45;8.0;;;7.0;;
45382;SDS011;42455;51.660;5.824;2023-04-01T03:22:50;9.5;;;9.0;;
45382;SDS011;42455;51.660;5.824;2023-04-01T03:27:56;10.0;;;9.0;;
45382;SDS011;42455;51.660;5.824;2023-04-01T03:33:01;10.0;;;9.0;;
45382;SDS011;42455;51.660;5.824;2023-04-01T03:38:08;10.0;;;9.0;;
45382;SDS011;42455;51.660;5.824;2023-04-01T03:43:14;11.0;;;10.0;;
45382;SDS011;42455;51.660;5.824;2023-04-01T03:48:20;11.0;;;10.0;;
45382;SDS011;42455;51.660;5.824;2023-04-01T03:53:26;12.0;;;10.0;;
45382;SDS011;42455;51.660;5.824;2023-04-01T03:58:33;11.0;;;10.0;;
45382;SDS011;42455;51.660;5.824;2023-04-01T04:03:39;11.0;;;10.0;;
45382;SDS011;42455;51.660;5.824;2023-04-01T04:08:45;11.0;;;9.0;;
45382;SDS011;42455;51.660;5.824;2023-04-01T04:13:51;10.0;;;9.0;;
45382;SDS011;42455;51.660;5.824;2023-04-01T04:18:57;9.5;;;8.5;;
45382;SDS011;42455;51.660;5.824;2023-04-01T04:24:04;8.0;;;7.0;;
45382;SDS011;42455;51.660;5.824;2023-04-01T04:29:10;8.0;;;7.0;;
45382;SDS011;42455;51.660;5.824;2023-04-01T04:34:16;7.0;;;6.0;;
45382;SDS011;42455;51.660;5.824;2023-04-01T04:39:22;5.0;;;5.0;;
45382;SDS011;42455;51.660;5.824;2023-04-01T04:44:28;5.0;;;5.0;;
45382;SDS011;42455;51.660;5.824;2023-04-01T04:49:35;6.0;;;5.0;;
45382;SDS011;42455;51.660;5.824;2023-04-01T04:54:41;6.0;;;6.0;;
45382;SDS011;42455;51.660;5.824;2023-04-01T04:59:47;5.0;;;5.0;;
45382;SDS011;42455;51.660;5.824;2023-04-01T05:04:53;5.0;;;4.0;;
45382;SDS011;42455;51.660;5.824;2023-04-01T05:10:00;5.0;;;5.0;;
45382;SDS011;42455;51.660;5.824;2023-04-01T05:15:06;5.0;;;5.0;;
45382;SDS011;42455;51.660;5.824;2023-04-01T05:20:11;5.0;;;5.0;;
45382;SDS011;42455;51.660;5.824;2023-04-01T05:25:17;6.0;;;5.0;;
45382;SDS011;42455;51.660;5.824;2023-04-01T05:30:22;6.0;;;5.0;;
45382;SDS011;42455;51.660;5.824;2023-04-01T05:35:29;6.0;;;5.0;;
45382;SDS011;42455;51.660;5.824;2023-04-01T05:40:35;6.0;;;6.0;;
45382;SDS011;42455;51.660;5.824;2023-04-01T05:45:41;7.0;;;6.5;;
45382;SDS011;42455;51.660;5.824;2023-04-01T05:50:47;7.0;;;7.0;;
45382;SDS011;42455;51.660;5.824;2023-04-01T05:55:53;8.0;;;7.0;;
45382;SDS011;42455;51.660;5.824;2023-04-01T06:01:00;8.0;;;8.0;;
45382;SDS011;42455;51.660;5.824;2023-04-01T06:06:13;8.0;;;8.0;;
45382;SDS011;42455;51.660;5.824;2023-04-01T06:11:16;9.0;;;8.5;;
45382;SDS011;42455;51.660;5.824;2023-04-01T06:17:03;10.5;;;9.5;;
45382;SDS011;42455;51.660;5.824;2023-04-01T06:21:55;11.0;;;10.0;;
45382;SDS011;42455;51.660;5.824;2023-04-01T06:27:16;13.0;;;11.0;;
45382;SDS011;42455;51.660;5.824;2023-04-01T06:32:31;13.0;;;12.0;;
45382;SDS011;42455;51.660;5.824;2023-04-01T06:38:09;14.0;;;13.0;;
45382;SDS011;42455;51.660;5.824;2023-04-01T06:42:58;15.0;;;13.0;;
45382;SDS011;42455;51.660;5.824;2023-04-01T06:47:57;15.0;;;14.0;;
45382;SDS011;42455;51.660;5.824;2023-04-01T06:53:21;15.0;;;14.0;;
45382;SDS011;42455;51.660;5.824;2023-04-01T06:57:22;14.5;;;13.0;;
45382;SDS011;42455;51.660;5.824;2023-04-01T07:02:33;15.0;;;13.0;;
45382;SDS011;42455;51.660;5.824;2023-04-01T07:07:26;14.0;;;12.0;;
45382;SDS011;42455;51.660;5.824;2023-04-01T07:12:48;14.0;;;13.0;;
45382;SDS011;42455;51.660;5.824;2023-04-01T07:17:32;14.0;;;12.0;;
45382;SDS011;42455;51.660;5.824;2023-04-01T07:22:48;13.0;;;12.0;;
45382;SDS011;42455;51.660;5.824;2023-04-01T07:27:43;14.0;;;12.0;;
45382;SDS011;42455;51.660;5.824;2023-04-01T07:33:16;14.0;;;12.0;;
45382;SDS011;42455;51.660;5.824;2023-04-01T07:38:08;15.0;;;13.0;;
45382;SDS011;42455;51.660;5.824;2023-04-01T07:43:57;15.0;;;13.0;;
45382;SDS011;42455;51.660;5.824;2023-04-01T07:49:17;18.0;;;13.0;;
45382;SDS011;42455;51.660;5.824;2023-04-01T07:53:18;14.0;;;12.0;;
45382;SDS011;42455;51.660;5.824;2023-04-01T07:58:47;15.0;;;13.0;;
45382;SDS011;42455;51.660;5.824;2023-04-01T08:03:35;17.0;;;13.5;;
45382;SDS011;42455;51.660;5.824;2023-04-01T08:08:55;14.0;;;12.5;;
45382;SDS011;42455;51.660;5.824;2023-04-01T08:13:58;13.5;;;12.0;;
45382;SDS011;42455;51.660;5.824;2023-04-01T08:18:51;13.0;;;12.0;;
45382;SDS011;42455;51.660;5.824;2023-04-01T08:23:55;13.0;;;11.0;;
45382;SDS011;42455;51.660;5.824;2023-04-01T08:29:02;12.0;;;10.0;;
45382;SDS011;42455;51.660;5.824;2023-04-01T08:34:03;11.0;;;10.0;;
45382;SDS011;42455;51.660;5.824;2023-04-01T08:39:09;9.0;;;8.0;;
45382;SDS011;42455;51.660;5.824;2023-04-01T08:44:34;10.0;;;8.0;;
45382;SDS011;42455;51.660;5.824;2023-04-01T08:49:32;11.0;;;8.0;;
45382;SDS011;42455;51.660;5.824;2023-04-01T08:55:00;9.0;;;8.0;;
45382;SDS011;42455;51.660;5.824;2023-04-01T09:00:32;9.0;;;8.0;;
45382;SDS011;42455;51.660;5.824;2023-04-01T09:06:25;10.0;;;8.0;;
45382;SDS011;42455;51.660;5.824;2023-04-01T09:12:02;10.0;;;9.0;;
45382;SDS011;42455;51.660;5.824;2023-04-01T09:18:11;11.0;;;9.0;;
45382;SDS011;42455;51.660;5.824;2023-04-01T09:23:41;11.0;;;9.0;;
45382;SDS011;42455;51.660;5.824;2023-04-01T09:28:59;12.0;;;10.0;;
45382;SDS011;42455;51.660;5.824;2023-04-01T09:35:38;11.0;;;10.0;;
45382;SDS011;42455;51.660;5.824;2023-04-01T09:40:17;11.5;;;10.0;;
45382;SDS011;42455;51.660;5.824;2023-04-01T09:44:43;13.0;;;11.0;;
45382;SDS011;42455;51.660;5.824;2023-04-01T09:50:38;14.0;;;11.0;;
45382;SDS011;42455;51.660;5.824;2023-04-01T09:57:10;14.0;;;12.0;;
45382;SDS011;42455;51.660;5.824;2023-04-01T10:05:30;15.0;;;12.0;;
45382;SDS011;42455;51.660;5.824;2023-04-01T10:14:06;14.0;;;12.0;;
45382;SDS011;42455;51.660;5.824;2023-04-01T10:21:25;15.0;;;12.0;;
45382;SDS011;42455;51.660;5.824;2023-04-01T10:27:40;13.5;;;11.0;;
45382;SDS011;42455;51.660;5.824;2023-04-01T10:35:08;13.0;;;11.0;;
45382;SDS011;42455;51.660;5.824;2023-04-01T10:41:44;13.0;;;11.0;;
45382;SDS011;42455;51.660;5.824;2023-04-01T10:49:41;11.0;;;10.0;;
45382;SDS011;42455;51.660;5.824;2023-04-01T10:55:36;11.0;;;9.0;;
45382;SDS011;42455;51.660;5.824;2023-04-01T11:03:34;11.0;;;10.0;;
45382;SDS011;42455;51.660;5.824;2023-04-01T11:12:15;10.0;;;9.0;;
45382;SDS011;42455;51.660;5.824;2023-04-01T11:20:42;10.0;;;9.0;;
45382;SDS011;42455;51.660;5.824;2023-04-01T11:26:10;10.0;;;9.0;;
45382;SDS011;42455;51.660;5.824;2023-04-01T11:32:29;11.0;;;9.0;;
45382;SDS011;42455;51.660;5.824;2023-04-01T11:37:29;11.0;;;9.5;;
45382;SDS011;42455;51.660;5.824;2023-04-01T11:42:34;10.0;;;9.0;;
45382;SDS011;42455;51.660;5.824;2023-04-01T11:47:38;11.0;;;10.0;;
45382;SDS011;42455;51.660;5.824;2023-04-01T11:52:42;10.0;;;9.0;;
45382;SDS011;42455;51.660;5.824;2023-04-01T11:58:25;10.0;;;8.0;;
45382;SDS011;42455;51.660;5.824;2023-04-01T12:03:34;9.0;;;8.0;;
45382;SDS011;42455;51.660;5.824;2023-04-01T12:08:33;9.0;;;8.0;;
45382;SDS011;42455;51.660;5.824;2023-04-01T12:13:42;8.0;;;7.0;;
45382;SDS011;42455;51.660;5.824;2023-04-01T12:18:38;7.0;;;6.0;;
45382;SDS011;42455;51.660;5.824;2023-04-01T12:23:39;7.0;;;6.0;;
45382;SDS011;42455;51.660;5.824;2023-04-01T12:28:58;7.0;;;7.0;;
45382;SDS011;42455;51.660;5.824;2023-04-01T12:34:13;8.5;;;8.0;;
45382;SDS011;42455;51.660;5.824;2023-04-01T12:40:16;8.0;;;7.0;;
45382;SDS011;42455;51.660;5.824;2023-04-01T12:45:31;9.0;;;8.0;;
45382;SDS011;42455;51.660;5.824;2023-04-01T12:51:50;10.0;;;8.0;;
45382;SDS011;42455;51.660;5.824;2023-04-01T12:56:07;11.0;;;9.0;;
45382;SDS011;42455;51.660;5.824;2023-04-01T13:03:06;10.0;;;9.0;;
45382;SDS011;42455;51.660;5.824;2023-04-01T13:09:05;9.0;;;8.0;;
45382;SDS011;42455;51.660;5.824;2023-04-01T13:15:27;9.0;;;8.0;;
45382;SDS011;42455;51.660;5.824;2023-04-01T13:20:02;9.0;;;7.0;;
45382;SDS011;42455;51.660;5.824;2023-04-01T13:25:30;7.0;;;7.0;;
45382;SDS011;42455;51.660;5.824;2023-04-01T13:29:28;6.0;;;6.0;;
45382;SDS011;42455;51.660;5.824;2023-04-01T13:34:39;6.0;;;5.0;;
45382;SDS011;42455;51.660;5.824;2023-04-01T13:40:39;6.0;;;6.0;;
45382;SDS011;42455;51.660;5.824;2023-04-01T13:45:00;6.0;;;5.0;;
45382;SDS011;42455;51.660;5.824;2023-04-01T13:51:07;6.0;;;5.5;;
45382;SDS011;42455;51.660;5.824;2023-04-01T13:56:15;7.0;;;6.0;;
45382;SDS011;42455;51.660;5.824;2023-04-01T14:01:31;6.0;;;5.0;;
45382;SDS011;42455;51.660;5.824;2023-04-01T14:06:58;5.0;;;5.0;;
45382;SDS011;42455;51.660;5.824;2023-04-01T14:12:04;6.0;;;5.0;;
45382;SDS011;42455;51.660;5.824;2023-04-01T14:17:54;6.0;;;6.0;;
45382;SDS011;42455;51.660;5.824;2023-04-01T14:22:58;6.0;;;6.0;;
45382;SDS011;42455;51.660;5.824;2023-04-01T14:28:53;7.0;;;6.0;;
45382;SDS011;42455;51.660;5.824;2023-04-01T14:34:00;6.0;;;5.0;;
45382;SDS011;42455;51.660;5.824;2023-04-01T14:40:21;6.0;;;5.0;;
45382;SDS011;42455;51.660;5.824;2023-04-01T14:45:39;6.0;;;5.0;;
45382;SDS011;42455;51.660;5.824;2023-04-01T14:50:10;7.0;;;6.0;;
45382;SDS011;42455;51.660;5.824;2023-04-01T14:52:16;7.0;;;6.0;;
45382;SDS011;42455;51.660;5.824;2023-04-01T14:55:21;7.0;;;6.0;;
45382;SDS011;42455;51.660;5.824;2023-04-01T14:56:09;8.0;;;7.0;;
45382;SDS011;42455;51.660;5.824;2023-04-01T14:57:34;7.0;;;6.0;;
45382;SDS011;42455;51.660;5.824;2023-04-01T14:57:40;7.0;;;6.0;;
45382;SDS011;42455;51.660;5.824;2023-04-01T14:58:59;7.0;;;6.0;;
45382;SDS011;42455;51.660;5.824;2023-04-01T14:59:45;7.0;;;6.0;;
45382;SDS011;42455;51.660;5.824;2023-04-01T15:00:25;7.0;;;6.5;;
45382;SDS011;42455;51.660;5.824;2023-04-01T15:04:52;8.0;;;7.5;;
45382;SDS011;42455;51.660;5.824;2023-04-01T15:10:51;8.0;;;7.0;;
45382;SDS011;42455;51.660;5.824;2023-04-01T15:16:18;9.0;;;8.0;;
45382;SDS011;42455;51.660;5.824;2023-04-01T15:21:50;9.0;;;8.0;;
45382;SDS011;42455;51.660;5.824;2023-04-01T15:27:48;9.0;;;9.0;;
45382;SDS011;42455;51.660;5.824;2023-04-01T15:33:11;10.0;;;9.0;;
45382;SDS011;42455;51.660;5.824;2023-04-01T15:38:46;9.0;;;8.0;;
45382;SDS011;42455;51.660;5.824;2023-04-01T15:43:40;9.0;;;8.0;;
45382;SDS011;42455;51.660;5.824;2023-04-01T15:43:55;9.0;;;8.0;;
45382;SDS011;42455;51.660;5.824;2023-04-01T15:43:58;9.0;;;8.0;;
45382;SDS011;42455;51.660;5.824;2023-04-01T15:45:41;9.0;;;8.0;;
45382;SDS011;42455;51.660;5.824;2023-04-01T15:47:45;9.0;;;8.0;;
45382;SDS011;42455;51.660;5.824;2023-04-01T15:53:11;10.0;;;9.0;;
45382;SDS011;42455;51.660;5.824;2023-04-01T15:58:36;10.0;;;9.0;;
45382;SDS011;42455;51.660;5.824;2023-04-01T16:04:14;9.0;;;9.0;;
45382;SDS011;42455;51.660;5.824;2023-04-01T16:10:16;10.0;;;9.0;;
45382;SDS011;42455;51.660;5.824;2023-04-01T16:15:29;9.0;;;8.0;;
45382;SDS011;42455;51.660;5.824;2023-04-01T16:21:10;10.0;;;9.0;;
45382;SDS011;42455;51.660;5.824;2023-04-01T16:24:54;9.0;;;8.0;;
45382;SDS011;42455;51.660;5.824;2023-04-01T16:29:38;10.0;;;9.0;;
45382;SDS011;42455;51.660;5.824;2023-04-01T16:34:02;9.0;;;8.0;;
45382;SDS011;42455;51.660;5.824;2023-04-01T16:39:02;9.0;;;8.0;;
45382;SDS011;42455;51.660;5.824;2023-04-01T16:43:53;9.0;;;8.0;;
45382;SDS011;42455;51.660;5.824;2023-04-01T16:49:23;9.0;;;8.0;;
45382;SDS011;42455;51.660;5.824;2023-04-01T16:54:39;9.0;;;9.0;;
45382;SDS011;42455;51.660;5.824;2023-04-01T16:59:14;10.0;;;9.0;;
45382;SDS011;42455;51.660;5.824;2023-04-01T17:04:47;9.0;;;8.0;;
45382;SDS011;42455;51.660;5.824;2023-04-01T17:10:18;9.0;;;8.0;;
45382;SDS011;42455;51.660;5.824;2023-04-01T17:15:20;9.0;;;8.0;;
45382;SDS011;42455;51.660;5.824;2023-04-01T17:20:13;6.0;;;6.0;;
45382;SDS011;42455;51.660;5.824;2023-04-01T17:25:01;4.0;;;3.0;;
45382;SDS011;42455;51.660;5.824;2023-04-01T17:30:20;3.0;;;3.0;;
45382;SDS011;42455;51.660;5.824;2023-04-01T17:35:22;3.0;;;3.0;;
45382;SDS011;42455;51.660;5.824;2023-04-01T17:40:50;3.0;;;3.0;;
45382;SDS011;42455;51.660;5.824;2023-04-01T17:45:21;3.0;;;3.0;;
45382;SDS011;42455;51.660;5.824;2023-04-01T17:50:33;3.0;;;3.0;;
45382;SDS011;42455;51.660;5.824;2023-04-01T17:55:46;4.0;;;3.0;;
45382;SDS011;42455;51.660;5.824;2023-04-01T18:00:59;3.0;;;3.0;;
45382;SDS011;42455;51.660;5.824;2023-04-01T18:06:14;3.0;;;3.0;;
45382;SDS011;42455;51.660;5.824;2023-04-01T18:11:54;4.0;;;3.0;;
45382;SDS011;42455;51.660;5.824;2023-04-01T18:17:32;3.0;;;3.0;;
45382;SDS011;42455;51.660;5.824;2023-04-01T18:22:53;4.0;;;3.0;;
45382;SDS011;42455;51.660;5.824;2023-04-01T18:26:13;4.0;;;4.0;;
45382;SDS011;42455;51.660;5.824;2023-04-01T18:31:07;5.0;;;5.0;;
45382;SDS011;42455;51.660;5.824;2023-04-01T18:36:24;6.0;;;5.0;;
45382;SDS011;42455;51.660;5.824;2023-04-01T18:41:19;5.0;;;5.0;;
45382;SDS011;42455;51.660;5.824;2023-04-01T18:46:30;6.0;;;5.0;;
45382;SDS011;42455;51.660;5.824;2023-04-01T18:51:27;6.0;;;5.5;;
45382;SDS011;42455;51.660;5.824;2023-04-01T18:56:34;6.5;;;6.0;;
45382;SDS011;42455;51.660;5.824;2023-04-01T19:01:47;7.0;;;6.0;;
45382;SDS011;42455;51.660;5.824;2023-04-01T19:06:48;7.0;;;7.0;;
45382;SDS011;42455;51.660;5.824;2023-04-01T19:12:19;8.0;;;7.0;;
45382;SDS011;42455;51.660;5.824;2023-04-01T19:17:46;8.0;;;7.0;;
45382;SDS011;42455;51.660;5.824;2023-04-01T19:22:20;9.0;;;8.0;;
45382;SDS011;42455;51.660;5.824;2023-04-01T19:27:08;8.0;;;8.0;;
45382;SDS011;42455;51.660;5.824;2023-04-01T19:32:36;9.0;;;8.0;;
45382;SDS011;42455;51.660;5.824;2023-04-01T19:37:47;9.0;;;8.0;;
45382;SDS011;42455;51.660;5.824;2023-04-01T19:42:30;9.0;;;8.0;;
45382;SDS011;42455;51.660;5.824;2023-04-01T19:48:05;8.0;;;7.0;;
45382;SDS011;42455;51.660;5.824;2023-04-01T19:52:39;8.0;;;7.0;;
45382;SDS011;42455;51.660;5.824;2023-04-01T19:57:51;7.0;;;7.0;;
45382;SDS011;42455;51.660;5.824;2023-04-01T20:03:15;7.0;;;6.0;;
45382;SDS011;42455;51.660;5.824;2023-04-01T20:08:00;6.0;;;6.0;;
45382;SDS011;42455;51.660;5.824;2023-04-01T20:13:20;7.0;;;7.0;;
45382;SDS011;42455;51.660;5.824;2023-04-01T20:18:19;9.0;;;8.0;;
45382;SDS011;42455;51.660;5.824;2023-04-01T20:23:27;9.0;;;8.0;;
45382;SDS011;42455;51.660;5.824;2023-04-01T20:28:42;9.0;;;8.0;;
45382;SDS011;42455;51.660;5.824;2023-04-01T20:33:45;9.0;;;8.0;;
45382;SDS011;42455;51.660;5.824;2023-04-01T20:39:25;7.0;;;7.0;;
45382;SDS011;42455;51.660;5.824;2023-04-01T20:44:00;8.0;;;7.0;;
45382;SDS011;42455;51.660;5.824;2023-04-01T20:49:20;7.0;;;7.0;;
45382;SDS011;42455;51.660;5.824;2023-04-01T20:54:15;9.0;;;8.0;;
45382;SDS011;42455;51.660;5.824;2023-04-01T20:59:26;9.0;;;8.0;;
45382;SDS011;42455;51.660;5.824;2023-04-01T21:04:27;9.0;;;8.0;;
45382;SDS011;42455;51.660;5.824;2023-04-01T21:10:00;8.0;;;7.0;;
45382;SDS011;42455;51.660;5.824;2023-04-01T21:14:59;6.0;;;6.0;;
45382;SDS011;42455;51.660;5.824;2023-04-01T21:20:43;7.0;;;7.0;;
45382;SDS011;42455;51.660;5.824;2023-04-01T21:25:56;9.0;;;8.0;;
45382;SDS011;42455;51.660;5.824;2023-04-01T21:31:22;9.0;;;9.0;;
45382;SDS011;42455;51.660;5.824;2023-04-01T21:37:20;9.0;;;9.0;;
45382;SDS011;42455;51.660;5.824;2023-04-01T21:43:02;10.0;;;9.0;;
45382;SDS011;42455;51.660;5.824;2023-04-01T21:50:26;10.0;;;9.0;;
45382;SDS011;42455;51.660;5.824;2023-04-01T21:58:09;8.0;;;8.0;;
45382;SDS011;42455;51.660;5.824;2023-04-01T22:04:16;9.0;;;8.0;;
45382;SDS011;42455;51.660;5.824;2023-04-01T22:08:03;9.0;;;8.0;;
45382;SDS011;42455;51.660;5.824;2023-04-01T22:12:46;9.0;;;8.0;;
45382;SDS011;42455;51.660;5.824;2023-04-01T22:17:19;9.0;;;8.0;;
45382;SDS011;42455;51.660;5.824;2023-04-01T22:22:04;9.0;;;8.0;;
45382;SDS011;42455;51.660;5.824;2023-04-01T22:26:46;8.0;;;7.0;;
45382;SDS011;42455;51.660;5.824;2023-04-01T22:30:54;7.0;;;7.0;;
45382;SDS011;42455;51.660;5.824;2023-04-01T22:35:17;7.0;;;7.0;;
45382;SDS011;42455;51.660;5.824;2023-04-01T22:40:42;7.0;;;6.0;;
45382;SDS011;42455;51.660;5.824;2023-04-01T22:43:59;6.0;;;6.0;;
45382;SDS011;42455;51.660;5.824;2023-04-01T22:47:04;5.0;;;5.0;;
45382;SDS011;42455;51.660;5.824;2023-04-01T22:51:38;6.0;;;6.0;;
45382;SDS011;42455;51.660;5.824;2023-04-01T22:56:26;6.0;;;5.0;;
45382;SDS011;42455;51.660;5.824;2023-04-01T23:01:33;6.0;;;6.0;;
45382;SDS011;42455;51.660;5.824;2023-04-01T23:06:34;6.0;;;6.0;;
45382;SDS011;42455;51.660;5.824;2023-04-01T23:11:37;7.0;;;7.0;;
45382;SDS011;42455;51.660;5.824;2023-04-01T23:16:43;9.0;;;8.0;;
45382;SDS011;42455;51.660;5.824;2023-04-01T23:21:52;8.5;;;8.0;;
45382;SDS011;42455;51.660;5.824;2023-04-01T23:27:05;7.0;;;7.0;;
45382;SDS011;42455;51.660;5.824;2023-04-01T23:32:00;7.0;;;6.0;;
45382;SDS011;42455;51.660;5.824;2023-04-01T23:37:08;5.0;;;4.0;;
45382;SDS011;42455;51.660;5.824;2023-04-01T23:42:22;6.0;;;6.0;;
45382;SDS011;42455;51.660;5.824;2023-04-01T23:47:20;7.0;;;6.0;;
45382;SDS011;42455;51.660;5.824;2023-04-01T23:52:31;7.0;;;6.0;;
45382;SDS011;42455;51.660;5.824;2023-04-01T23:57:35;7.0;;;6.5;;
